Time;durP1;ratioP1;P1;durP2;ratioP2;P2;SDS_P1;SDS_P2;PMS_P1;PMS_P2;Temp;Humidity;BMP_temperature;BMP_pressure;BME280_temperature;BME280_humidity;BME280_pressure;Samples;Min_cycle;Max_cycle;Signal;HPM_P1;HPM_P2
2023/08/12 00:00:21;;;;;;;10.88;3.35;;;;;;;;;;6301927;22;20232;-90
2023/08/12 00:03:26;;;;;;;10.35;3.50;;;;;;;;;;6300400;22;20165;-90
2023/08/12 00:06:32;;;;;;;8.60;3.83;;;;;;;;;;6300936;22;20204;-89
2023/08/12 00:09:37;;;;;;;6.80;3.53;;;;;;;;;;6301913;22;20172;-90
2023/08/12 00:12:42;;;;;;;7.97;3.58;;;;;;;;;;6300189;22;20303;-88
2023/08/12 00:15:49;;;;;;;6.07;3.30;;;;;;;;;;6301701;22;20165;-88
2023/08/12 00:18:54;;;;;;;7.85;3.53;;;;;;;;;;6301738;22;20189;-88
2023/08/12 00:21:59;;;;;;;7.57;3.25;;;;;;;;;;6303661;22;20170;-88
2023/08/12 00:25:05;;;;;;;5.80;3.30;;;;;;;;;;6302137;22;20221;-88
2023/08/12 00:28:10;;;;;;;10.30;3.65;;;;;;;;;;6301096;22;20164;-90
2023/08/12 00:31:17;;;;;;;7.35;3.38;;;;;;;;;;6320457;22;20169;-90
2023/08/12 00:34:22;;;;;;;5.20;3.72;;;;;;;;;;6300445;22;20165;-89
2023/08/12 00:37:27;;;;;;;7.57;3.38;;;;;;;;;;6302207;22;20173;-88
2023/08/12 00:40:32;;;;;;;9.05;3.58;;;;;;;;;;6301140;22;20181;-88
2023/08/12 00:43:37;;;;;;;8.13;3.63;;;;;;;;;;6300918;22;20177;-89
2023/08/12 00:46:44;;;;;;;10.32;3.80;;;;;;;;;;6304340;22;20173;-90
2023/08/12 00:49:49;;;;;;;5.07;3.25;;;;;;;;;;6301367;22;20178;-90
2023/08/12 00:52:54;;;;;;;5.07;3.10;;;;;;;;;;6300563;22;20169;-88
2023/08/12 00:55:59;;;;;;;6.72;3.28;;;;;;;;;;6299328;22;20152;-91
2023/08/12 00:59:06;;;;;;;10.15;4.13;;;;;;;;;;6299377;22;20172;-91
2023/08/12 01:02:13;;;;;;;6.63;3.80;;;;;;;;;;6301062;22;20153;-90
2023/08/12 01:05:19;;;;;;;4.85;3.22;;;;;;;;;;6300230;22;20170;-90
2023/08/12 01:08:27;;;;;;;7.30;3.47;;;;;;;;;;6301194;22;20518;-88
2023/08/12 01:11:37;;;;;;;7.22;3.53;;;;;;;;;;6299963;22;20177;-87
2023/08/12 01:14:47;;;;;;;13.50;3.78;;;;;;;;;;6300264;22;20221;-88
2023/08/12 01:17:55;;;;;;;8.85;3.35;;;;;;;;;;6300630;22;20153;-89
2023/08/12 01:21:03;;;;;;;8.05;3.75;;;;;;;;;;6298843;22;20243;-90
2023/08/12 01:24:10;;;;;;;11.23;3.88;;;;;;;;;;6301191;22;20169;-89
2023/08/12 01:27:15;;;;;;;6.07;3.88;;;;;;;;;;6298742;22;20169;-88
2023/08/12 01:30:23;;;;;;;7.68;3.42;;;;;;;;;;6299291;22;20165;-90
2023/08/12 01:33:34;;;;;;;10.57;3.60;;;;;;;;;;6300463;22;20166;-89
2023/08/12 01:36:41;;;;;;;15.32;4.13;;;;;;;;;;6299368;22;20165;-88
2023/08/12 01:39:48;;;;;;;10.85;3.92;;;;;;;;;;6298546;22;20215;-87
2023/08/12 01:42:54;;;;;;;7.15;3.83;;;;;;;;;;6298956;22;20172;-87
2023/08/12 01:45:59;;;;;;;8.65;4.05;;;;;;;;;;6300163;22;20161;-90
2023/08/12 01:49:05;;;;;;;7.10;3.60;;;;;;;;;;6299856;22;20236;-89
2023/08/12 01:52:10;;;;;;;4.35;3.38;;;;;;;;;;6300195;22;20164;-87
2023/08/12 01:55:16;;;;;;;8.32;3.63;;;;;;;;;;6299597;22;20165;-90
2023/08/12 01:58:21;;;;;;;8.07;2.80;;;;;;;;;;6298786;22;20284;-87
2023/08/12 02:01:27;;;;;;;8.93;3.75;;;;;;;;;;6298347;22;20145;-88
2023/08/12 02:04:32;;;;;;;6.55;3.72;;;;;;;;;;6280870;22;20200;-88
2023/08/12 02:07:37;;;;;;;7.85;3.63;;;;;;;;;;6298851;22;20192;-88
2023/08/12 02:10:44;;;;;;;5.78;3.72;;;;;;;;;;6299093;22;20169;-89
2023/08/12 02:13:49;;;;;;;6.75;4.30;;;;;;;;;;6297623;22;20168;-87
2023/08/12 02:16:55;;;;;;;8.27;3.78;;;;;;;;;;6297159;22;20188;-89
2023/08/12 02:20:01;;;;;;;6.22;3.35;;;;;;;;;;6299301;22;20223;-88
2023/08/12 02:23:09;;;;;;;10.23;3.92;;;;;;;;;;6298137;22;20169;-87
2023/08/12 02:26:15;;;;;;;9.10;3.97;;;;;;;;;;6304631;22;20192;-89
2023/08/12 02:29:20;;;;;;;7.55;3.67;;;;;;;;;;6299559;22;20181;-88
2023/08/12 02:32:25;;;;;;;6.45;4.28;;;;;;;;;;6297111;22;20191;-88
2023/08/12 02:35:30;;;;;;;8.45;4.10;;;;;;;;;;6299303;22;20144;-89
2023/08/12 02:38:35;;;;;;;13.98;3.78;;;;;;;;;;6298351;22;20244;-88
2023/08/12 02:41:41;;;;;;;9.73;4.00;;;;;;;;;;6299367;22;20207;-89
2023/08/12 02:44:47;;;;;;;10.30;3.78;;;;;;;;;;6300897;22;20165;-89
2023/08/12 02:47:53;;;;;;;8.10;3.90;;;;;;;;;;6300078;22;20165;-88
2023/08/12 02:50:59;;;;;;;5.93;3.60;;;;;;;;;;6300212;22;20165;-88
2023/08/12 02:54:04;;;;;;;7.22;3.67;;;;;;;;;;6298978;22;20173;-89
2023/08/12 02:57:10;;;;;;;8.63;3.80;;;;;;;;;;6301274;22;20208;-91
2023/08/12 03:00:16;;;;;;;7.88;4.03;;;;;;;;;;6300439;22;20201;-90
2023/08/12 03:03:21;;;;;;;9.48;4.05;;;;;;;;;;6297977;22;20157;-89
2023/08/12 03:06:26;;;;;;;5.75;3.70;;;;;;;;;;6299599;22;20169;-88
2023/08/12 03:09:31;;;;;;;10.00;4.25;;;;;;;;;;6299921;22;20193;-89
2023/08/12 03:12:38;;;;;;;10.07;3.80;;;;;;;;;;6300248;22;20173;-90
2023/08/12 03:15:43;;;;;;;7.75;3.55;;;;;;;;;;6299538;22;20283;-88
2023/08/12 03:18:48;;;;;;;6.80;3.75;;;;;;;;;;6297791;22;20193;-89
2023/08/12 03:21:54;;;;;;;7.85;3.78;;;;;;;;;;6298152;22;20144;-89
2023/08/12 03:25:01;;;;;;;8.77;4.25;;;;;;;;;;6300164;22;20166;-91
2023/08/12 03:28:07;;;;;;;8.88;3.70;;;;;;;;;;6300295;22;20160;-92
2023/08/12 03:31:12;;;;;;;9.60;4.20;;;;;;;;;;6300346;22;20176;-89
2023/08/12 03:34:17;;;;;;;10.13;3.92;;;;;;;;;;6300964;22;20235;-90
2023/08/12 03:37:23;;;;;;;7.07;3.70;;;;;;;;;;6299324;22;20235;-87
2023/08/12 03:40:30;;;;;;;11.07;4.45;;;;;;;;;;6300236;22;20264;-89
2023/08/12 03:43:38;;;;;;;6.15;3.83;;;;;;;;;;6301998;22;20165;-88
2023/08/12 03:46:44;;;;;;;7.95;3.60;;;;;;;;;;6300297;22;20165;-87
2023/08/12 03:49:49;;;;;;;8.13;4.28;;;;;;;;;;6300467;22;20165;-87
2023/08/12 03:52:55;;;;;;;6.03;4.15;;;;;;;;;;6298753;22;20500;-86
2023/08/12 03:56:00;;;;;;;7.43;3.88;;;;;;;;;;6302872;22;20165;-86
2023/08/12 03:59:08;;;;;;;11.40;4.28;;;;;;;;;;6305490;22;20278;-90
2023/08/12 04:02:12;;;;;;;12.02;4.53;;;;;;;;;;6300082;22;20165;-88
2023/08/12 04:05:17;;;;;;;12.82;4.18;;;;;;;;;;6299972;22;20558;-91
2023/08/12 04:08:24;;;;;;;6.45;3.92;;;;;;;;;;6303404;22;20197;-89
2023/08/12 04:11:31;;;;;;;7.18;3.78;;;;;;;;;;6299933;22;20166;-91
2023/08/12 04:14:38;;;;;;;9.02;4.05;;;;;;;;;;6300643;22;20153;-90
2023/08/12 04:17:43;;;;;;;9.80;4.10;;;;;;;;;;6301571;22;20272;-89
2023/08/12 04:20:48;;;;;;;8.20;4.32;;;;;;;;;;6300745;22;20234;-91
2023/08/12 04:23:53;;;;;;;7.25;4.10;;;;;;;;;;6298134;22;20165;-89
2023/08/12 04:26:58;;;;;;;8.02;3.58;;;;;;;;;;6300788;22;20153;-89
2023/08/12 04:30:05;;;;;;;6.82;3.90;;;;;;;;;;6302127;22;20208;-88
2023/08/12 04:33:11;;;;;;;10.98;4.30;;;;;;;;;;6305059;22;20211;-89
2023/08/12 04:36:16;;;;;;;6.35;3.67;;;;;;;;;;6301047;22;20165;-88
2023/08/12 04:39:22;;;;;;;8.35;4.13;;;;;;;;;;6300582;22;20231;-90
2023/08/12 04:42:27;;;;;;;9.43;3.75;;;;;;;;;;6301398;22;20216;-88
2023/08/12 04:45:34;;;;;;;9.55;4.05;;;;;;;;;;6300750;22;20235;-91
2023/08/12 04:48:41;;;;;;;8.30;4.00;;;;;;;;;;6300403;22;20153;-88
2023/08/12 04:51:46;;;;;;;8.18;3.88;;;;;;;;;;6300763;22;20165;-89
2023/08/12 04:54:54;;;;;;;6.60;4.00;;;;;;;;;;6299103;22;20169;-89
2023/08/12 04:58:01;;;;;;;7.35;4.13;;;;;;;;;;6300906;22;20145;-89
2023/08/12 05:01:09;;;;;;;12.75;4.35;;;;;;;;;;6301120;22;20525;-88
2023/08/12 05:04:17;;;;;;;9.93;3.67;;;;;;;;;;6302368;22;20161;-87
2023/08/12 05:07:22;;;;;;;5.15;3.70;;;;;;;;;;6302405;22;20169;-90
2023/08/12 05:10:27;;;;;;;5.97;3.60;;;;;;;;;;6301048;22;20173;-88
2023/08/12 05:13:32;;;;;;;5.10;3.45;;;;;;;;;;6303511;22;20166;-88
2023/08/12 05:16:40;;;;;;;8.63;3.90;;;;;;;;;;6301583;22;20284;-89
2023/08/12 05:19:46;;;;;;;7.03;3.75;;;;;;;;;;6300108;22;20204;-86
2023/08/12 05:22:50;;;;;;;6.70;4.00;;;;;;;;;;6301268;22;20237;-90
2023/08/12 05:25:56;;;;;;;7.55;4.30;;;;;;;;;;6301879;22;20169;-88
2023/08/12 05:29:01;;;;;;;11.45;4.72;;;;;;;;;;6301067;22;20204;-89
2023/08/12 05:32:08;;;;;;;10.35;4.85;;;;;;;;;;6303366;22;20164;-88
2023/08/12 05:35:13;;;;;;;8.48;4.47;;;;;;;;;;6302883;22;20250;-86
2023/08/12 05:38:18;;;;;;;9.43;4.20;;;;;;;;;;6308824;22;20173;-87
2023/08/12 05:41:24;;;;;;;9.32;5.05;;;;;;;;;;6301708;22;20180;-90
2023/08/12 05:44:29;;;;;;;9.55;5.25;;;;;;;;;;6301082;22;20196;-89
2023/08/12 05:47:36;;;;;;;9.52;4.40;;;;;;;;;;6318861;22;20284;-88
2023/08/12 05:50:41;;;;;;;8.75;3.83;;;;;;;;;;6301566;22;20181;-87
2023/08/12 05:53:46;;;;;;;7.95;3.72;;;;;;;;;;6298902;22;20674;-88
2023/08/12 05:56:51;;;;;;;11.25;4.40;;;;;;;;;;6301610;22;20168;-89
2023/08/12 05:59:57;;;;;;;8.60;3.50;;;;;;;;;;6300625;22;20188;-88
2023/08/12 06:03:03;;;;;;;6.93;3.95;;;;;;;;;;6299164;22;20208;-89
2023/08/12 06:06:08;;;;;;;7.38;2.97;;;;;;;;;;6300483;22;20173;-86
2023/08/12 06:09:13;;;;;;;11.93;3.67;;;;;;;;;;6300288;22;20192;-88
2023/08/12 06:12:19;;;;;;;7.28;3.55;;;;;;;;;;6299722;22;20170;-89
2023/08/12 06:15:24;;;;;;;7.95;3.45;;;;;;;;;;6299206;22;20663;-89
2023/08/12 06:18:30;;;;;;;6.25;3.65;;;;;;;;;;6297636;22;20174;-87
2023/08/12 06:21:35;;;;;;;4.32;2.95;;;;;;;;;;6299529;22;20243;-89
2023/08/12 06:24:40;;;;;;;9.00;3.40;;;;;;;;;;6299228;22;20165;-90
2023/08/12 06:27:45;;;;;;;5.03;3.08;;;;;;;;;;6299664;22;20168;-91
2023/08/12 06:30:51;;;;;;;6.88;3.28;;;;;;;;;;6298344;22;20220;-88
2023/08/12 06:33:57;;;;;;;4.45;3.13;;;;;;;;;;6297882;22;20207;-91
2023/08/12 06:37:02;;;;;;;4.43;2.88;;;;;;;;;;6301737;22;20152;-89
2023/08/12 06:40:08;;;;;;;6.07;2.65;;;;;;;;;;6299279;22;20268;-90
2023/08/12 06:43:14;;;;;;;11.02;3.00;;;;;;;;;;6298169;22;20162;-89
2023/08/12 06:46:19;;;;;;;8.73;3.10;;;;;;;;;;6296783;22;20173;-89
2023/08/12 06:49:25;;;;;;;8.05;2.90;;;;;;;;;;6298207;22;20153;-91
2023/08/12 06:52:30;;;;;;;5.68;2.83;;;;;;;;;;6297476;22;20158;-91
2023/08/12 06:55:35;;;;;;;6.63;3.05;;;;;;;;;;6297602;22;20161;-88
2023/08/12 06:58:41;;;;;;;9.43;3.35;;;;;;;;;;6298561;22;20177;-89
2023/08/12 07:01:46;;;;;;;7.30;2.97;;;;;;;;;;6297251;22;20231;-89
2023/08/12 07:04:55;;;;;;;4.55;3.08;;;;;;;;;;6300340;22;20149;-88
2023/08/12 07:08:01;;;;;;;5.43;3.00;;;;;;;;;;6299890;22;20639;-91
2023/08/12 07:11:06;;;;;;;7.25;3.20;;;;;;;;;;6300723;22;20170;-90
2023/08/12 07:14:11;;;;;;;6.85;2.97;;;;;;;;;;6301348;22;20243;-89
2023/08/12 07:17:16;;;;;;;4.60;2.72;;;;;;;;;;6297676;22;20161;-91
2023/08/12 07:20:24;;;;;;;15.65;7.47;;;;;;;;;;6300098;22;20638;-90
2023/08/12 07:23:29;;;;;;;6.57;3.00;;;;;;;;;;6297429;22;20250;-90
2023/08/12 07:26:34;;;;;;;6.68;2.90;;;;;;;;;;6302016;22;20544;-89
2023/08/12 07:29:39;;;;;;;4.93;2.80;;;;;;;;;;6300644;22;20169;-90
2023/08/12 07:32:44;;;;;;;5.47;2.88;;;;;;;;;;6300272;22;20208;-91
2023/08/12 07:35:51;;;;;;;8.38;3.17;;;;;;;;;;6302390;22;20176;-90
2023/08/12 07:38:57;;;;;;;6.78;3.08;;;;;;;;;;6301112;22;20165;-90
2023/08/12 07:42:03;;;;;;;7.00;3.42;;;;;;;;;;6300363;22;20156;-90
2023/08/12 07:45:08;;;;;;;6.05;2.95;;;;;;;;;;6305212;22;20177;-90
2023/08/12 07:48:14;;;;;;;4.70;2.85;;;;;;;;;;6303378;22;20212;-88
2023/08/12 07:51:24;;;;;;;4.20;2.80;;;;;;;;;;6302256;22;20173;-88
2023/08/12 07:54:31;;;;;;;4.75;2.60;;;;;;;;;;6302302;22;20228;-89
2023/08/12 07:57:36;;;;;;;5.60;2.88;;;;;;;;;;6304395;22;20326;-90
2023/08/12 08:00:41;;;;;;;4.38;2.67;;;;;;;;;;6302942;22;20196;-89
2023/08/12 08:03:46;;;;;;;4.32;2.45;;;;;;;;;;6303087;22;20700;-90
2023/08/12 08:07:06;;;;;;;7.85;2.75;;;;;;;;;;6308612;22;20153;-91
2023/08/12 08:10:11;;;;;;;4.00;2.78;;;;;;;;;;6301245;22;20149;-90
2023/08/12 08:13:16;;;;;;;3.55;2.55;;;;;;;;;;6303980;22;20152;-91
2023/08/12 08:16:21;;;;;;;4.95;2.53;;;;;;;;;;6304223;22;20207;-91
2023/08/12 08:19:27;;;;;;;3.17;2.30;;;;;;;;;;6301383;22;20496;-89
2023/08/12 08:22:34;;;;;;;7.35;2.95;;;;;;;;;;6303493;22;20148;-90
2023/08/12 08:25:39;;;;;;;4.40;2.42;;;;;;;;;;6304690;22;20810;-92
2023/08/12 08:28:45;;;;;;;3.25;2.63;;;;;;;;;;6302627;22;20187;-90
2023/08/12 08:31:51;;;;;;;7.50;2.92;;;;;;;;;;6302936;22;20167;-92
2023/08/12 08:34:56;;;;;;;4.95;2.45;;;;;;;;;;6301555;22;20250;-87
2023/08/12 08:38:02;;;;;;;6.85;3.10;;;;;;;;;;6301136;22;20145;-92
2023/08/12 08:41:07;;;;;;;4.63;2.95;;;;;;;;;;6299878;22;20280;-90
2023/08/12 08:44:13;;;;;;;5.07;2.88;;;;;;;;;;6300324;22;20184;-89
2023/08/12 08:47:21;;;;;;;5.35;2.83;;;;;;;;;;6302307;22;20169;-90
2023/08/12 08:50:26;;;;;;;9.70;3.47;;;;;;;;;;6304340;22;20229;-91
2023/08/12 08:53:33;;;;;;;6.10;2.75;;;;;;;;;;6302589;22;20147;-90
2023/08/12 08:56:39;;;;;;;4.90;2.50;;;;;;;;;;6300752;22;20168;-93
2023/08/12 08:59:44;;;;;;;7.30;2.60;;;;;;;;;;6300075;22;20168;-88
2023/08/12 09:02:49;;;;;;;3.75;2.30;;;;;;;;;;6301509;22;20219;-92
2023/08/12 09:05:56;;;;;;;6.72;2.50;;;;;;;;;;6300480;22;20156;-88
2023/08/12 09:09:03;;;;;;;4.20;2.50;;;;;;;;;;6300631;22;20183;-91
2023/08/12 09:12:09;;;;;;;3.60;2.47;;;;;;;;;;6303599;22;20636;-89
2023/08/12 09:15:14;;;;;;;9.07;2.50;;;;;;;;;;6300554;22;20161;-91
2023/08/12 09:18:23;;;;;;;6.10;2.20;;;;;;;;;;6302056;22;20224;-91
2023/08/12 09:21:29;;;;;;;6.32;2.22;;;;;;;;;;6301876;22;20207;-90
2023/08/12 09:24:36;;;;;;;3.50;2.17;;;;;;;;;;6301759;22;20187;-90
2023/08/12 09:27:41;;;;;;;5.28;1.95;;;;;;;;;;6320494;22;20282;-90
2023/08/12 09:30:53;;;;;;;4.20;2.10;;;;;;;;;;6302807;22;20258;-91
2023/08/12 09:33:59;;;;;;;5.47;2.00;;;;;;;;;;6302336;22;20164;-89
2023/08/12 09:37:05;;;;;;;3.40;2.38;;;;;;;;;;6302906;22;20160;-89
2023/08/12 09:40:13;;;;;;;3.88;1.80;;;;;;;;;;6302358;22;20212;-91
2023/08/12 09:43:19;;;;;;;5.85;1.70;;;;;;;;;;6302794;22;20173;-91
2023/08/12 09:46:25;;;;;;;2.83;1.83;;;;;;;;;;6300409;22;20235;-91
2023/08/12 09:49:31;;;;;;;3.88;2.10;;;;;;;;;;6301769;22;20168;-91
2023/08/12 09:52:37;;;;;;;3.38;1.90;;;;;;;;;;6319072;22;20160;-89
2023/08/12 09:55:44;;;;;;;3.10;2.08;;;;;;;;;;6302521;22;20164;-89
2023/08/12 09:58:50;;;;;;;5.25;2.00;;;;;;;;;;6302445;22;20191;-93
2023/08/12 10:01:56;;;;;;;3.05;1.65;;;;;;;;;;6302005;22;20168;-91
2023/08/12 10:05:10;;;;;;;4.65;2.10;;;;;;;;;;6302542;22;20161;-90
2023/08/12 10:08:16;;;;;;;5.97;2.30;;;;;;;;;;6300405;22;20599;-91
2023/08/12 10:11:23;;;;;;;2.50;1.98;;;;;;;;;;6300784;22;20200;-90
2023/08/12 10:14:29;;;;;;;3.78;2.08;;;;;;;;;;6302064;22;20164;-91
2023/08/12 10:17:35;;;;;;;5.70;2.00;;;;;;;;;;6300688;22;20207;-91
2023/08/12 10:20:40;;;;;;;6.45;2.53;;;;;;;;;;6299248;22;20160;-90
2023/08/12 10:23:46;;;;;;;16.80;6.72;;;;;;;;;;6298821;22;20168;-91
2023/08/12 10:26:53;;;;;;;5.22;2.20;;;;;;;;;;6299245;22;20213;-91
2023/08/12 10:29:58;;;;;;;4.43;1.83;;;;;;;;;;6300204;22;20239;-92
2023/08/12 10:33:03;;;;;;;4.57;1.90;;;;;;;;;;6298934;22;20164;-89
2023/08/12 10:36:08;;;;;;;3.10;1.88;;;;;;;;;;6300214;22;20168;-93
2023/08/12 10:39:15;;;;;;;3.30;1.70;;;;;;;;;;6298931;22;20165;-90
2023/08/12 10:42:35;;;;;;;2.45;1.55;;;;;;;;;;6302690;22;20160;-90
2023/08/12 10:45:45;;;;;;;4.00;1.60;;;;;;;;;;6300445;22;20168;-90
2023/08/12 10:48:58;;;;;;;2.30;1.50;;;;;;;;;;6297947;22;20176;-92
2023/08/12 10:52:03;;;;;;;3.45;1.70;;;;;;;;;;6307677;22;20212;-92
2023/08/12 10:55:18;;;;;;;4.32;1.55;;;;;;;;;;6300986;22;20215;-91
2023/08/12 10:58:28;;;;;;;7.22;1.88;;;;;;;;;;6301433;22;20240;-90
2023/08/12 11:01:35;;;;;;;3.85;1.60;;;;;;;;;;6300885;22;20168;-92
2023/08/12 11:08:05;;;;;;;2.63;1.35;;;;;;;;;;6312220;22;20199;-91
2023/08/12 11:11:21;;;;;;;3.35;1.40;;;;;;;;;;6306322;22;20196;-92
2023/08/12 11:14:26;;;;;;;2.33;1.58;;;;;;;;;;6301676;22;20568;-92
2023/08/12 11:17:41;;;;;;;3.35;1.50;;;;;;;;;;6301520;22;20145;-90
2023/08/12 11:20:47;;;;;;;2.03;1.60;;;;;;;;;;6303139;22;20160;-90
2023/08/12 11:23:52;;;;;;;3.80;1.55;;;;;;;;;;6302540;22;20163;-91
2023/08/12 11:26:56;;;;;;;7.63;1.58;;;;;;;;;;6303537;22;20165;-91
2023/08/12 11:30:02;;;;;;;4.32;1.60;;;;;;;;;;6301840;22;20235;-91
2023/08/12 11:40:34;;;;;;;5.22;1.88;;;;;;;;;;6301757;22;20177;-90
2023/08/12 11:43:39;;;;;;;2.85;1.67;;;;;;;;;;6302015;22;20160;-92
2023/08/12 11:46:44;;;;;;;7.90;1.90;;;;;;;;;;6301457;22;20155;-91
2023/08/12 11:49:49;;;;;;;4.53;1.50;;;;;;;;;;6302386;22;20168;-92
2023/08/12 11:52:57;;;;;;;4.82;1.80;;;;;;;;;;6304725;22;20199;-90
2023/08/12 11:56:03;;;;;;;4.95;2.35;;;;;;;;;;6302021;22;20168;-90
2023/08/12 11:59:09;;;;;;;2.95;1.50;;;;;;;;;;6301488;22;20176;-90
2023/08/12 12:02:14;;;;;;;4.32;1.42;;;;;;;;;;6301603;22;20156;-90
2023/08/12 12:05:20;;;;;;;5.47;3.60;;;;;;;;;;6306217;22;20242;-89
2023/08/12 12:08:27;;;;;;;4.00;1.60;;;;;;;;;;6320724;22;20203;-91
2023/08/12 12:11:33;;;;;;;2.78;1.50;;;;;;;;;;6305058;22;20234;-90
2023/08/12 12:14:38;;;;;;;4.57;1.50;;;;;;;;;;6300754;22;20164;-91
2023/08/12 12:17:43;;;;;;;7.75;1.60;;;;;;;;;;6309144;22;20191;-89
2023/08/12 12:20:56;;;;;;;2.75;1.50;;;;;;;;;;6307378;22;20164;-90
2023/08/12 12:24:03;;;;;;;4.70;1.75;;;;;;;;;;6303886;22;20163;-91
2023/08/12 12:27:12;;;;;;;4.30;1.73;;;;;;;;;;6311257;22;20172;-91
2023/08/12 12:33:30;;;;;;;8.15;1.58;;;;;;;;;;6297216;22;20146;-90
2023/08/12 12:36:38;;;;;;;4.50;1.60;;;;;;;;;;6268940;22;20221;-91
2023/08/12 12:39:46;;;;;;;3.08;1.80;;;;;;;;;;6274359;22;20168;-90
2023/08/12 12:42:52;;;;;;;2.95;1.60;;;;;;;;;;6290985;22;20210;-92
2023/08/12 12:45:57;;;;;;;2.40;1.40;;;;;;;;;;6268494;22;20161;-88
2023/08/12 12:49:02;;;;;;;4.93;1.75;;;;;;;;;;6269219;22;20144;-89
2023/08/12 12:52:09;;;;;;;3.03;1.60;;;;;;;;;;6269555;22;20196;-90
2023/08/12 12:55:15;;;;;;;3.97;1.50;;;;;;;;;;6269634;22;20165;-90
2023/08/12 12:58:22;;;;;;;3.45;1.80;;;;;;;;;;6286733;22;20247;-92
2023/08/12 13:01:27;;;;;;;2.53;1.60;;;;;;;;;;6267132;22;20173;-93
2023/08/12 13:04:32;;;;;;;4.47;1.70;;;;;;;;;;6268336;22;20241;-89
2023/08/12 13:07:37;;;;;;;4.38;1.70;;;;;;;;;;6272817;22;20168;-90
2023/08/12 13:10:44;;;;;;;2.58;1.45;;;;;;;;;;6271005;22;20191;-91
2023/08/12 13:13:49;;;;;;;2.30;1.40;;;;;;;;;;6269526;22;20164;-89
2023/08/12 13:16:55;;;;;;;3.13;1.58;;;;;;;;;;6266618;22;20157;-91
2023/08/12 13:20:00;;;;;;;2.28;1.50;;;;;;;;;;6268807;22;20182;-91
2023/08/12 13:23:06;;;;;;;3.60;1.40;;;;;;;;;;6267740;22;20237;-92
2023/08/12 13:26:12;;;;;;;1.85;1.25;;;;;;;;;;6268026;22;20181;-91
2023/08/12 13:29:22;;;;;;;1.65;1.48;;;;;;;;;;6267753;22;20173;-89
2023/08/12 13:32:27;;;;;;;4.35;1.20;;;;;;;;;;6266192;22;20196;-90
2023/08/12 13:35:32;;;;;;;4.07;1.30;;;;;;;;;;6267723;22;20225;-91
2023/08/12 13:38:37;;;;;;;2.53;1.33;;;;;;;;;;6267867;22;20517;-91
2023/08/12 13:41:44;;;;;;;3.05;1.30;;;;;;;;;;6271361;22;20500;-91
2023/08/12 13:44:49;;;;;;;2.13;1.33;;;;;;;;;;6272208;22;20207;-92
2023/08/12 13:47:54;;;;;;;5.70;1.20;;;;;;;;;;6270235;22;20169;-93
2023/08/12 13:51:00;;;;;;;3.13;1.20;;;;;;;;;;6270109;22;20187;-89
2023/08/12 13:54:05;;;;;;;3.30;1.10;;;;;;;;;;6270358;22;20239;-90
2023/08/12 13:57:13;;;;;;;2.60;1.10;;;;;;;;;;6274173;22;20173;-88
2023/08/12 14:00:18;;;;;;;1.52;1.02;;;;;;;;;;6271723;22;20165;-90
2023/08/12 14:03:23;;;;;;;1.67;0.95;;;;;;;;;;6269029;22;20264;-89
2023/08/12 14:06:34;;;;;;;1.02;0.90;;;;;;;;;;6272182;22;20177;-90
2023/08/12 14:09:39;;;;;;;3.90;1.00;;;;;;;;;;6270782;22;20221;-91
2023/08/12 14:12:48;;;;;;;1.63;1.02;;;;;;;;;;6270589;22;20252;-89
2023/08/12 14:15:54;;;;;;;2.08;1.30;;;;;;;;;;6270650;22;20226;-91
2023/08/12 14:19:00;;;;;;;2.33;1.00;;;;;;;;;;6267661;22;20281;-90
2023/08/12 14:22:05;;;;;;;3.50;1.10;;;;;;;;;;6270394;22;20157;-88
2023/08/12 14:25:11;;;;;;;4.63;1.20;;;;;;;;;;6267539;22;20161;-90
2023/08/12 14:28:18;;;;;;;1.75;1.20;;;;;;;;;;6267541;22;20486;-90
2023/08/12 14:31:22;;;;;;;1.23;1.05;;;;;;;;;;6268570;22;20161;-90
2023/08/12 14:34:27;;;;;;;2.78;0.95;;;;;;;;;;6266946;22;20270;-90
2023/08/12 14:37:33;;;;;;;2.47;1.30;;;;;;;;;;6268215;22;20173;-88
2023/08/12 14:40:38;;;;;;;1.70;1.00;;;;;;;;;;6270259;22;20169;-90
2023/08/12 14:43:45;;;;;;;1.20;0.90;;;;;;;;;;6269645;22;20251;-89
2023/08/12 14:46:50;;;;;;;2.10;1.10;;;;;;;;;;6272007;22;20184;-90
2023/08/12 14:49:56;;;;;;;2.00;1.08;;;;;;;;;;6270972;22;20264;-90
2023/08/12 14:53:01;;;;;;;1.83;1.10;;;;;;;;;;6270531;22;20193;-89
2023/08/12 14:56:06;;;;;;;1.80;1.08;;;;;;;;;;6271922;22;20169;-89
2023/08/12 14:59:13;;;;;;;4.30;1.20;;;;;;;;;;6271325;22;20161;-90
2023/08/12 15:02:18;;;;;;;1.63;1.10;;;;;;;;;;6271503;22;20211;-89
2023/08/12 15:05:23;;;;;;;1.08;0.90;;;;;;;;;;6272124;22;20161;-91
2023/08/12 15:08:29;;;;;;;3.42;1.90;;;;;;;;;;6269363;22;20248;-90
2023/08/12 15:11:34;;;;;;;1.60;1.20;;;;;;;;;;6269170;22;20174;-90
2023/08/12 15:14:40;;;;;;;1.15;0.90;;;;;;;;;;6289160;22;20505;-92
2023/08/12 15:17:45;;;;;;;2.33;1.10;;;;;;;;;;6269972;22;20208;-91
2023/08/12 15:20:50;;;;;;;2.25;1.23;;;;;;;;;;6270539;22;20247;-90
2023/08/12 15:23:55;;;;;;;2.35;1.05;;;;;;;;;;6269445;22;20476;-90
2023/08/12 15:27:01;;;;;;;1.38;0.80;;;;;;;;;;6267489;22;20164;-87
2023/08/12 15:30:10;;;;;;;1.75;0.80;;;;;;;;;;6271350;22;20165;-90
2023/08/12 15:33:15;;;;;;;1.50;1.10;;;;;;;;;;6271510;22;20276;-88
2023/08/12 15:36:20;;;;;;;3.58;1.10;;;;;;;;;;6273944;22;20192;-91
2023/08/12 15:39:25;;;;;;;1.55;1.13;;;;;;;;;;6271971;22;20166;-88
2023/08/12 15:42:30;;;;;;;4.05;1.50;;;;;;;;;;6266078;22;20213;-89
2023/08/12 15:45:39;;;;;;;4.35;1.25;;;;;;;;;;6268856;22;20149;-89
2023/08/12 15:48:44;;;;;;;2.42;1.05;;;;;;;;;;6268256;22;20168;-89
2023/08/12 15:51:49;;;;;;;2.85;1.33;;;;;;;;;;6268864;22;20235;-90
2023/08/12 15:54:54;;;;;;;2.03;1.38;;;;;;;;;;6266991;22;20165;-90
2023/08/12 15:57:59;;;;;;;2.08;1.10;;;;;;;;;;6267509;22;20173;-88
2023/08/12 16:01:07;;;;;;;1.90;0.90;;;;;;;;;;6269045;22;20157;-89
2023/08/12 16:04:12;;;;;;;2.05;1.02;;;;;;;;;;6268926;22;20675;-90
2023/08/12 16:07:18;;;;;;;3.05;1.10;;;;;;;;;;6270853;22;20209;-90
2023/08/12 16:10:23;;;;;;;2.25;1.20;;;;;;;;;;6269658;22;20170;-86
2023/08/12 16:13:28;;;;;;;6.45;1.77;;;;;;;;;;6270665;22;20184;-88
2023/08/12 16:16:34;;;;;;;6.50;1.80;;;;;;;;;;6271206;22;20170;-90
2023/08/12 16:19:40;;;;;;;6.22;1.50;;;;;;;;;;6270977;22;20173;-89
2023/08/12 16:22:46;;;;;;;1.88;1.10;;;;;;;;;;6268426;22;20595;-89
2023/08/12 16:25:52;;;;;;;3.25;1.38;;;;;;;;;;6268622;22;20203;-89
2023/08/12 16:28:56;;;;;;;2.17;1.30;;;;;;;;;;6269409;22;20158;-88
2023/08/12 16:32:03;;;;;;;4.78;1.30;;;;;;;;;;6269846;22;20169;-91
2023/08/12 16:35:08;;;;;;;3.92;1.40;;;;;;;;;;6269918;22;20209;-90
2023/08/12 16:38:13;;;;;;;5.97;2.58;;;;;;;;;;6268739;22;20304;-88
2023/08/12 16:41:21;;;;;;;4.78;1.60;;;;;;;;;;6270223;22;20169;-90
2023/08/12 16:44:25;;;;;;;3.85;1.67;;;;;;;;;;6270923;22;20145;-91
2023/08/12 16:47:32;;;;;;;4.38;1.80;;;;;;;;;;6271293;22;20197;-90
2023/08/12 16:50:37;;;;;;;6.00;2.03;;;;;;;;;;6273344;22;20173;-89
2023/08/12 16:53:42;;;;;;;4.35;2.70;;;;;;;;;;6269993;22;20198;-90
2023/08/12 16:56:51;;;;;;;5.28;2.45;;;;;;;;;;6268441;22;20166;-91
2023/08/12 16:59:57;;;;;;;9.00;2.13;;;;;;;;;;6268544;22;20210;-89
2023/08/12 17:03:04;;;;;;;4.55;2.13;;;;;;;;;;6268303;22;20281;-91
2023/08/12 17:06:09;;;;;;;11.93;2.20;;;;;;;;;;6270862;22;20177;-91
2023/08/12 17:09:14;;;;;;;9.30;2.97;;;;;;;;;;6269975;22;20162;-91
2023/08/12 17:12:22;;;;;;;6.70;2.15;;;;;;;;;;6268481;22;20169;-89
2023/08/12 17:15:27;;;;;;;4.38;2.17;;;;;;;;;;6270813;22;20295;-88
2023/08/12 17:18:34;;;;;;;4.22;2.42;;;;;;;;;;6269584;22;20238;-91
2023/08/12 17:21:38;;;;;;;7.13;2.55;;;;;;;;;;6269803;22;20174;-90
2023/08/12 17:24:43;;;;;;;7.00;2.05;;;;;;;;;;6269915;22;20183;-91
2023/08/12 17:27:53;;;;;;;5.57;2.10;;;;;;;;;;6268452;22;20225;-89
2023/08/12 17:30:58;;;;;;;5.05;1.58;;;;;;;;;;6272860;22;20165;-89
2023/08/12 17:34:06;;;;;;;5.43;2.13;;;;;;;;;;6269478;22;20189;-89
2023/08/12 17:37:11;;;;;;;4.30;1.80;;;;;;;;;;6270671;22;20186;-90
2023/08/12 17:40:22;;;;;;;5.95;1.65;;;;;;;;;;6269747;22;20184;-89
2023/08/12 17:46:46;;;;;;;3.97;1.80;;;;;;;;;;6272375;22;20184;-89
2023/08/12 17:49:53;;;;;;;5.32;1.73;;;;;;;;;;6270236;22;20613;-90
2023/08/12 17:52:58;;;;;;;8.70;2.20;;;;;;;;;;6270754;22;20192;-90
2023/08/12 17:56:03;;;;;;;6.93;2.22;;;;;;;;;;6271122;22;20270;-90
2023/08/12 17:59:08;;;;;;;7.50;2.58;;;;;;;;;;6270304;22;20174;-88
2023/08/12 18:02:13;;;;;;;8.90;4.47;;;;;;;;;;6268870;22;20261;-88
2023/08/12 18:05:20;;;;;;;5.35;2.85;;;;;;;;;;6271903;22;20177;-91
2023/08/12 18:08:25;;;;;;;8.13;2.65;;;;;;;;;;6270577;22;20178;-90
2023/08/12 18:11:30;;;;;;;5.65;2.70;;;;;;;;;;6268230;22;20165;-90
2023/08/12 18:14:35;;;;;;;3.50;2.38;;;;;;;;;;6267769;22;20197;-88
2023/08/12 18:17:46;;;;;;;8.98;2.70;;;;;;;;;;6269677;22;20169;-89
2023/08/12 18:20:52;;;;;;;4.40;2.30;;;;;;;;;;6268946;22;20225;-89
2023/08/12 18:23:57;;;;;;;10.32;2.40;;;;;;;;;;6267884;22;20170;-88
2023/08/12 18:27:02;;;;;;;6.28;2.90;;;;;;;;;;6268941;22;20170;-89
2023/08/12 18:30:08;;;;;;;5.53;2.65;;;;;;;;;;6267940;22;20162;-90
2023/08/12 18:33:13;;;;;;;7.93;3.25;;;;;;;;;;6267241;22;20198;-91
2023/08/12 18:36:20;;;;;;;8.32;2.78;;;;;;;;;;6268143;22;20265;-91
2023/08/12 18:39:25;;;;;;;6.68;2.53;;;;;;;;;;6268904;22;20174;-88
2023/08/12 18:42:31;;;;;;;6.47;3.00;;;;;;;;;;6269052;22;20217;-89
2023/08/12 18:45:36;;;;;;;6.43;3.13;;;;;;;;;;6267443;22;20166;-89
2023/08/12 18:48:41;;;;;;;4.70;2.42;;;;;;;;;;6269388;22;20206;-89